sensor_id;sensor_type;location;lat;lon;timestamp;P1;durP1;ratioP1;P2;durP2;ratioP2
37507;SDS011;23360;46.936;15.514;2024-03-17T00:01:25;20.90;;;7.22;;
37507;SDS011;23360;46.936;15.514;2024-03-17T00:04:10;10.02;;;4.82;;
37507;SDS011;23360;46.936;15.514;2024-03-17T00:06:54;11.35;;;5.15;;
37507;SDS011;23360;46.936;15.514;2024-03-17T00:09:42;10.70;;;3.75;;
37507;SDS011;23360;46.936;15.514;2024-03-17T00:12:26;13.82;;;3.50;;
37507;SDS011;23360;46.936;15.514;2024-03-17T00:15:10;14.57;;;5.15;;
37507;SDS011;23360;46.936;15.514;2024-03-17T00:17:55;14.00;;;5.47;;
37507;SDS011;23360;46.936;15.514;2024-03-17T00:20:39;12.45;;;4.57;;
37507;SDS011;23360;46.936;15.514;2024-03-17T00:23:24;10.43;;;4.00;;
37507;SDS011;23360;46.936;15.514;2024-03-17T00:26:08;8.38;;;3.53;;
37507;SDS011;23360;46.936;15.514;2024-03-17T00:28:52;12.95;;;3.50;;
37507;SDS011;23360;46.936;15.514;2024-03-17T00:31:36;6.45;;;2.50;;
37507;SDS011;23360;46.936;15.514;2024-03-17T00:34:21;9.95;;;2.70;;
37507;SDS011;23360;46.936;15.514;2024-03-17T00:37:06;9.20;;;2.83;;
37507;SDS011;23360;46.936;15.514;2024-03-17T00:39:49;14.65;;;3.10;;
37507;SDS011;23360;46.936;15.514;2024-03-17T00:42:34;10.52;;;3.70;;
37507;SDS011;23360;46.936;15.514;2024-03-17T00:45:18;10.32;;;3.95;;
37507;SDS011;23360;46.936;15.514;2024-03-17T00:48:03;11.32;;;4.18;;
37507;SDS011;23360;46.936;15.514;2024-03-17T00:50:54;7.38;;;3.15;;
37507;SDS011;23360;46.936;15.514;2024-03-17T00:53:39;10.18;;;3.92;;
37507;SDS011;23360;46.936;15.514;2024-03-17T00:56:23;13.70;;;4.32;;
37507;SDS011;23360;46.936;15.514;2024-03-17T00:59:07;12.32;;;4.30;;
37507;SDS011;23360;46.936;15.514;2024-03-17T01:01:52;8.93;;;3.80;;
37507;SDS011;23360;46.936;15.514;2024-03-17T01:04:36;10.93;;;4.65;;
37507;SDS011;23360;46.936;15.514;2024-03-17T01:07:20;11.95;;;5.38;;
37507;SDS011;23360;46.936;15.514;2024-03-17T01:10:05;11.15;;;5.07;;
37507;SDS011;23360;46.936;15.514;2024-03-17T01:12:52;10.80;;;4.82;;
37507;SDS011;23360;46.936;15.514;2024-03-17T01:15:36;14.13;;;5.60;;
37507;SDS011;23360;46.936;15.514;2024-03-17T01:18:21;14.10;;;4.38;;
37507;SDS011;23360;46.936;15.514;2024-03-17T01:21:06;9.80;;;4.70;;
37507;SDS011;23360;46.936;15.514;2024-03-17T01:23:51;10.75;;;4.72;;
37507;SDS011;23360;46.936;15.514;2024-03-17T01:26:35;13.70;;;5.40;;
37507;SDS011;23360;46.936;15.514;2024-03-17T01:29:19;13.40;;;4.82;;
37507;SDS011;23360;46.936;15.514;2024-03-17T01:32:04;12.80;;;5.35;;
37507;SDS011;23360;46.936;15.514;2024-03-17T01:34:48;12.98;;;5.60;;
37507;SDS011;23360;46.936;15.514;2024-03-17T01:37:32;12.35;;;6.18;;
37507;SDS011;23360;46.936;15.514;2024-03-17T01:40:17;19.45;;;7.13;;
37507;SDS011;23360;46.936;15.514;2024-03-17T01:43:01;25.13;;;8.60;;
37507;SDS011;23360;46.936;15.514;2024-03-17T01:45:46;13.63;;;7.25;;
37507;SDS011;23360;46.936;15.514;2024-03-17T01:48:31;17.40;;;6.97;;
37507;SDS011;23360;46.936;15.514;2024-03-17T01:51:15;17.60;;;7.97;;
37507;SDS011;23360;46.936;15.514;2024-03-17T01:54:00;16.60;;;5.93;;
37507;SDS011;23360;46.936;15.514;2024-03-17T01:56:44;13.73;;;6.32;;
37507;SDS011;23360;46.936;15.514;2024-03-17T01:59:29;10.48;;;4.88;;
37507;SDS011;23360;46.936;15.514;2024-03-17T02:02:13;13.25;;;4.95;;
37507;SDS011;23360;46.936;15.514;2024-03-17T02:04:57;14.63;;;5.72;;
37507;SDS011;23360;46.936;15.514;2024-03-17T02:07:42;13.45;;;5.63;;
37507;SDS011;23360;46.936;15.514;2024-03-17T02:10:26;13.10;;;5.55;;
37507;SDS011;23360;46.936;15.514;2024-03-17T02:13:10;14.52;;;6.90;;
37507;SDS011;23360;46.936;15.514;2024-03-17T02:15:54;15.07;;;6.38;;
37507;SDS011;23360;46.936;15.514;2024-03-17T02:18:39;11.30;;;5.22;;
37507;SDS011;23360;46.936;15.514;2024-03-17T02:21:24;17.25;;;5.25;;
37507;SDS011;23360;46.936;15.514;2024-03-17T02:24:08;12.52;;;5.47;;
37507;SDS011;23360;46.936;15.514;2024-03-17T02:26:53;12.43;;;5.75;;
37507;SDS011;23360;46.936;15.514;2024-03-17T02:29:37;16.50;;;4.90;;
37507;SDS011;23360;46.936;15.514;2024-03-17T02:32:22;16.27;;;5.75;;
37507;SDS011;23360;46.936;15.514;2024-03-17T02:35:07;17.33;;;5.50;;
37507;SDS011;23360;46.936;15.514;2024-03-17T02:37:51;11.88;;;5.13;;
37507;SDS011;23360;46.936;15.514;2024-03-17T02:40:36;15.75;;;7.03;;
37507;SDS011;23360;46.936;15.514;2024-03-17T02:43:20;13.38;;;6.05;;
37507;SDS011;23360;46.936;15.514;2024-03-17T02:46:05;72.28;;;25.38;;
37507;SDS011;23360;46.936;15.514;2024-03-17T02:48:51;54.03;;;21.35;;
37507;SDS011;23360;46.936;15.514;2024-03-17T02:51:35;13.05;;;6.43;;
37507;SDS011;23360;46.936;15.514;2024-03-17T02:54:20;9.73;;;4.75;;
37507;SDS011;23360;46.936;15.514;2024-03-17T02:57:05;11.57;;;5.55;;
37507;SDS011;23360;46.936;15.514;2024-03-17T02:59:50;18.20;;;4.78;;
37507;SDS011;23360;46.936;15.514;2024-03-17T03:02:36;12.63;;;5.03;;
37507;SDS011;23360;46.936;15.514;2024-03-17T03:05:20;16.45;;;6.35;;
37507;SDS011;23360;46.936;15.514;2024-03-17T03:08:04;13.52;;;5.80;;
37507;SDS011;23360;46.936;15.514;2024-03-17T03:10:49;10.93;;;5.07;;
37507;SDS011;23360;46.936;15.514;2024-03-17T03:13:33;14.70;;;4.45;;
37507;SDS011;23360;46.936;15.514;2024-03-17T03:16:17;12.20;;;5.20;;
37507;SDS011;23360;46.936;15.514;2024-03-17T03:19:04;17.17;;;5.70;;
37507;SDS011;23360;46.936;15.514;2024-03-17T03:21:48;19.48;;;5.68;;
37507;SDS011;23360;46.936;15.514;2024-03-17T03:24:33;8.88;;;3.20;;
37507;SDS011;23360;46.936;15.514;2024-03-17T03:27:17;7.93;;;3.70;;
37507;SDS011;23360;46.936;15.514;2024-03-17T03:30:02;10.05;;;4.40;;
37507;SDS011;23360;46.936;15.514;2024-03-17T03:32:47;9.88;;;2.65;;
37507;SDS011;23360;46.936;15.514;2024-03-17T03:35:32;9.13;;;4.25;;
37507;SDS011;23360;46.936;15.514;2024-03-17T03:38:17;12.15;;;5.32;;
37507;SDS011;23360;46.936;15.514;2024-03-17T03:41:08;14.35;;;5.07;;
37507;SDS011;23360;46.936;15.514;2024-03-17T03:43:53;12.07;;;5.20;;
37507;SDS011;23360;46.936;15.514;2024-03-17T03:46:37;7.85;;;3.85;;
37507;SDS011;23360;46.936;15.514;2024-03-17T03:49:21;10.18;;;3.95;;
37507;SDS011;23360;46.936;15.514;2024-03-17T03:52:06;8.90;;;3.20;;
37507;SDS011;23360;46.936;15.514;2024-03-17T03:54:53;7.43;;;2.63;;
37507;SDS011;23360;46.936;15.514;2024-03-17T03:57:37;6.85;;;3.30;;
37507;SDS011;23360;46.936;15.514;2024-03-17T04:00:21;9.38;;;3.85;;
37507;SDS011;23360;46.936;15.514;2024-03-17T04:03:06;12.13;;;4.50;;
37507;SDS011;23360;46.936;15.514;2024-03-17T04:05:50;7.32;;;3.70;;
37507;SDS011;23360;46.936;15.514;2024-03-17T04:08:38;7.70;;;3.40;;
37507;SDS011;23360;46.936;15.514;2024-03-17T04:11:24;9.85;;;2.97;;
37507;SDS011;23360;46.936;15.514;2024-03-17T04:14:09;5.95;;;2.30;;
37507;SDS011;23360;46.936;15.514;2024-03-17T04:16:54;6.28;;;2.13;;
37507;SDS011;23360;46.936;15.514;2024-03-17T04:19:39;8.82;;;2.92;;
37507;SDS011;23360;46.936;15.514;2024-03-17T04:22:24;7.85;;;2.08;;
37507;SDS011;23360;46.936;15.514;2024-03-17T04:25:09;4.03;;;1.52;;
37507;SDS011;23360;46.936;15.514;2024-03-17T04:27:53;6.45;;;1.38;;
37507;SDS011;23360;46.936;15.514;2024-03-17T04:30:38;7.45;;;2.40;;
37507;SDS011;23360;46.936;15.514;2024-03-17T04:33:23;10.43;;;1.95;;
37507;SDS011;23360;46.936;15.514;2024-03-17T04:36:07;8.80;;;2.33;;
37507;SDS011;23360;46.936;15.514;2024-03-17T04:38:52;10.40;;;2.40;;
37507;SDS011;23360;46.936;15.514;2024-03-17T04:41:38;10.00;;;3.45;;
37507;SDS011;23360;46.936;15.514;2024-03-17T04:44:25;15.85;;;3.63;;
37507;SDS011;23360;46.936;15.514;2024-03-17T04:47:09;8.70;;;3.70;;
37507;SDS011;23360;46.936;15.514;2024-03-17T04:49:54;13.90;;;4.88;;
37507;SDS011;23360;46.936;15.514;2024-03-17T04:52:38;9.55;;;4.03;;
37507;SDS011;23360;46.936;15.514;2024-03-17T04:55:23;7.18;;;2.50;;
37507;SDS011;23360;46.936;15.514;2024-03-17T04:58:07;5.57;;;1.67;;
37507;SDS011;23360;46.936;15.514;2024-03-17T05:00:52;7.78;;;1.80;;
37507;SDS011;23360;46.936;15.514;2024-03-17T05:03:36;5.22;;;1.52;;
37507;SDS011;23360;46.936;15.514;2024-03-17T05:06:20;4.90;;;1.70;;
37507;SDS011;23360;46.936;15.514;2024-03-17T05:09:06;5.70;;;1.45;;
37507;SDS011;23360;46.936;15.514;2024-03-17T05:11:50;2.78;;;1.17;;
37507;SDS011;23360;46.936;15.514;2024-03-17T05:14:36;5.40;;;1.15;;
37507;SDS011;23360;46.936;15.514;2024-03-17T05:17:20;7.55;;;1.10;;
37507;SDS011;23360;46.936;15.514;2024-03-17T05:20:05;3.85;;;0.90;;
37507;SDS011;23360;46.936;15.514;2024-03-17T05:22:51;3.67;;;0.80;;
37507;SDS011;23360;46.936;15.514;2024-03-17T05:25:35;2.97;;;0.90;;
37507;SDS011;23360;46.936;15.514;2024-03-17T05:28:21;2.33;;;0.80;;
37507;SDS011;23360;46.936;15.514;2024-03-17T05:31:06;2.13;;;0.75;;
37507;SDS011;23360;46.936;15.514;2024-03-17T05:33:50;3.53;;;0.90;;
37507;SDS011;23360;46.936;15.514;2024-03-17T05:36:36;4.10;;;0.88;;
37507;SDS011;23360;46.936;15.514;2024-03-17T05:39:21;5.05;;;1.30;;
37507;SDS011;23360;46.936;15.514;2024-03-17T05:42:06;6.07;;;1.60;;
37507;SDS011;23360;46.936;15.514;2024-03-17T05:44:51;3.50;;;1.20;;
37507;SDS011;23360;46.936;15.514;2024-03-17T05:47:37;3.35;;;1.27;;
37507;SDS011;23360;46.936;15.514;2024-03-17T05:50:22;4.32;;;1.23;;
37507;SDS011;23360;46.936;15.514;2024-03-17T05:53:06;6.68;;;2.40;;
37507;SDS011;23360;46.936;15.514;2024-03-17T05:55:51;7.82;;;3.30;;
37507;SDS011;23360;46.936;15.514;2024-03-17T05:58:35;7.78;;;3.63;;
37507;SDS011;23360;46.936;15.514;2024-03-17T06:01:20;8.13;;;3.08;;
37507;SDS011;23360;46.936;15.514;2024-03-17T06:04:06;9.50;;;3.65;;
37507;SDS011;23360;46.936;15.514;2024-03-17T06:06:50;6.20;;;3.20;;
37507;SDS011;23360;46.936;15.514;2024-03-17T06:09:34;10.75;;;4.10;;
37507;SDS011;23360;46.936;15.514;2024-03-17T06:12:18;9.27;;;3.90;;
37507;SDS011;23360;46.936;15.514;2024-03-17T06:15:02;6.43;;;3.00;;
37507;SDS011;23360;46.936;15.514;2024-03-17T06:17:47;6.78;;;2.75;;
37507;SDS011;23360;46.936;15.514;2024-03-17T06:20:31;6.07;;;2.97;;
37507;SDS011;23360;46.936;15.514;2024-03-17T06:23:15;6.45;;;1.70;;
37507;SDS011;23360;46.936;15.514;2024-03-17T06:25:59;8.38;;;3.35;;
37507;SDS011;23360;46.936;15.514;2024-03-17T06:28:46;7.43;;;3.45;;
37507;SDS011;23360;46.936;15.514;2024-03-17T06:31:30;7.72;;;2.67;;
37507;SDS011;23360;46.936;15.514;2024-03-17T06:34:15;6.07;;;3.03;;
37507;SDS011;23360;46.936;15.514;2024-03-17T06:36:59;8.70;;;2.40;;
37507;SDS011;23360;46.936;15.514;2024-03-17T06:39:45;6.32;;;2.42;;
37507;SDS011;23360;46.936;15.514;2024-03-17T06:42:29;4.13;;;1.63;;
37507;SDS011;23360;46.936;15.514;2024-03-17T06:45:14;6.57;;;1.92;;
37507;SDS011;23360;46.936;15.514;2024-03-17T06:48:02;6.22;;;1.60;;
37507;SDS011;23360;46.936;15.514;2024-03-17T06:50:46;3.67;;;1.65;;
37507;SDS011;23360;46.936;15.514;2024-03-17T06:53:30;4.38;;;2.05;;
37507;SDS011;23360;46.936;15.514;2024-03-17T06:56:15;5.13;;;1.73;;
37507;SDS011;23360;46.936;15.514;2024-03-17T06:58:59;7.13;;;1.63;;
37507;SDS011;23360;46.936;15.514;2024-03-17T07:01:43;5.57;;;1.42;;
37507;SDS011;23360;46.936;15.514;2024-03-17T07:04:28;3.67;;;1.40;;
37507;SDS011;23360;46.936;15.514;2024-03-17T07:07:15;4.78;;;1.73;;
37507;SDS011;23360;46.936;15.514;2024-03-17T07:10:00;7.32;;;1.33;;
37507;SDS011;23360;46.936;15.514;2024-03-17T07:12:49;5.32;;;1.50;;
37507;SDS011;23360;46.936;15.514;2024-03-17T07:15:33;5.63;;;2.00;;
37507;SDS011;23360;46.936;15.514;2024-03-17T07:18:17;6.20;;;1.95;;
37507;SDS011;23360;46.936;15.514;2024-03-17T07:21:02;4.30;;;1.73;;
37507;SDS011;23360;46.936;15.514;2024-03-17T07:23:51;6.03;;;1.80;;
37507;SDS011;23360;46.936;15.514;2024-03-17T07:26:35;4.78;;;1.70;;
37507;SDS011;23360;46.936;15.514;2024-03-17T07:29:20;3.72;;;1.10;;
37507;SDS011;23360;46.936;15.514;2024-03-17T07:32:05;4.40;;;1.58;;
37507;SDS011;23360;46.936;15.514;2024-03-17T07:34:49;4.07;;;1.33;;
37507;SDS011;23360;46.936;15.514;2024-03-17T07:37:34;4.03;;;1.42;;
37507;SDS011;23360;46.936;15.514;2024-03-17T07:40:18;4.25;;;1.20;;
37507;SDS011;23360;46.936;15.514;2024-03-17T07:43:03;2.65;;;1.05;;
37507;SDS011;23360;46.936;15.514;2024-03-17T07:45:47;3.65;;;0.80;;
37507;SDS011;23360;46.936;15.514;2024-03-17T07:48:32;1.55;;;0.35;;
37507;SDS011;23360;46.936;15.514;2024-03-17T07:51:17;2.47;;;0.70;;
37507;SDS011;23360;46.936;15.514;2024-03-17T07:54:01;2.28;;;0.70;;
37507;SDS011;23360;46.936;15.514;2024-03-17T07:56:46;0.57;;;0.20;;
37507;SDS011;23360;46.936;15.514;2024-03-17T07:59:30;3.47;;;0.60;;
37507;SDS011;23360;46.936;15.514;2024-03-17T08:02:15;1.85;;;0.30;;
37507;SDS011;23360;46.936;15.514;2024-03-17T08:05:00;1.70;;;0.22;;
37507;SDS011;23360;46.936;15.514;2024-03-17T08:07:44;1.10;;;0.17;;
37507;SDS011;23360;46.936;15.514;2024-03-17T08:10:29;1.35;;;0.30;;
37507;SDS011;23360;46.936;15.514;2024-03-17T08:13:14;2.40;;;0.20;;
37507;SDS011;23360;46.936;15.514;2024-03-17T08:16:03;0.88;;;0.38;;
37507;SDS011;23360;46.936;15.514;2024-03-17T08:18:49;0.32;;;0.10;;
37507;SDS011;23360;46.936;15.514;2024-03-17T08:21:34;0.77;;;0.20;;
37507;SDS011;23360;46.936;15.514;2024-03-17T08:24:18;0.20;;;0.10;;
37507;SDS011;23360;46.936;15.514;2024-03-17T08:27:02;3.72;;;0.32;;
37507;SDS011;23360;46.936;15.514;2024-03-17T08:29:47;1.20;;;0.30;;
37507;SDS011;23360;46.936;15.514;2024-03-17T08:32:31;1.30;;;0.40;;
37507;SDS011;23360;46.936;15.514;2024-03-17T08:35:15;1.50;;;0.40;;
37507;SDS011;23360;46.936;15.514;2024-03-17T08:38:00;0.20;;;0.10;;
37507;SDS011;23360;46.936;15.514;2024-03-17T08:40:45;1.17;;;0.10;;
37507;SDS011;23360;46.936;15.514;2024-03-17T08:43:29;0.68;;;0.20;;
37507;SDS011;23360;46.936;15.514;2024-03-17T08:46:14;0.80;;;0.20;;
37507;SDS011;23360;46.936;15.514;2024-03-17T08:48:58;1.00;;;0.20;;
37507;SDS011;23360;46.936;15.514;2024-03-17T08:51:42;0.93;;;0.20;;
37507;SDS011;23360;46.936;15.514;2024-03-17T08:54:25;4.03;;;0.30;;
37507;SDS011;23360;46.936;15.514;2024-03-17T08:57:10;0.65;;;0.10;;
37507;SDS011;23360;46.936;15.514;2024-03-17T08:59:54;1.33;;;0.30;;
37507;SDS011;23360;46.936;15.514;2024-03-17T09:02:39;1.58;;;0.60;;
37507;SDS011;23360;46.936;15.514;2024-03-17T09:05:24;1.23;;;0.28;;
37507;SDS011;23360;46.936;15.514;2024-03-17T09:08:18;1.95;;;0.50;;
37507;SDS011;23360;46.936;15.514;2024-03-17T09:11:06;3.15;;;0.70;;
37507;SDS011;23360;46.936;15.514;2024-03-17T09:13:55;3.17;;;0.60;;
37507;SDS011;23360;46.936;15.514;2024-03-17T09:16:40;1.33;;;0.40;;
37507;SDS011;23360;46.936;15.514;2024-03-17T09:19:24;1.27;;;0.50;;
37507;SDS011;23360;46.936;15.514;2024-03-17T09:22:09;2.08;;;0.47;;
37507;SDS011;23360;46.936;15.514;2024-03-17T09:24:53;0.40;;;0.25;;
37507;SDS011;23360;46.936;15.514;2024-03-17T09:27:38;2.10;;;0.40;;
37507;SDS011;23360;46.936;15.514;2024-03-17T09:30:22;1.92;;;0.55;;
37507;SDS011;23360;46.936;15.514;2024-03-17T09:33:06;2.28;;;0.70;;
37507;SDS011;23360;46.936;15.514;2024-03-17T09:38:38;2.00;;;0.32;;
37507;SDS011;23360;46.936;15.514;2024-03-17T09:41:23;5.07;;;0.43;;
37507;SDS011;23360;46.936;15.514;2024-03-17T09:44:10;3.75;;;0.88;;
37507;SDS011;23360;46.936;15.514;2024-03-17T09:46:55;1.58;;;0.50;;
37507;SDS011;23360;46.936;15.514;2024-03-17T09:49:40;4.30;;;0.60;;
37507;SDS011;23360;46.936;15.514;2024-03-17T09:52:25;3.67;;;0.60;;
37507;SDS011;23360;46.936;15.514;2024-03-17T09:55:16;1.88;;;0.50;;
37507;SDS011;23360;46.936;15.514;2024-03-17T09:58:01;7.00;;;3.22;;
37507;SDS011;23360;46.936;15.514;2024-03-17T10:00:46;3.80;;;1.10;;
37507;SDS011;23360;46.936;15.514;2024-03-17T10:06:46;1.45;;;0.52;;
37507;SDS011;23360;46.936;15.514;2024-03-17T10:09:31;0.85;;;0.22;;
37507;SDS011;23360;46.936;15.514;2024-03-17T10:12:26;1.67;;;0.35;;
37507;SDS011;23360;46.936;15.514;2024-03-17T10:15:11;5.57;;;0.45;;
37507;SDS011;23360;46.936;15.514;2024-03-17T10:17:58;2.55;;;0.35;;
37507;SDS011;23360;46.936;15.514;2024-03-17T10:20:42;1.45;;;0.43;;
37507;SDS011;23360;46.936;15.514;2024-03-17T10:23:26;0.50;;;0.20;;
37507;SDS011;23360;46.936;15.514;2024-03-17T10:26:15;2.05;;;0.50;;
37507;SDS011;23360;46.936;15.514;2024-03-17T10:28:59;3.90;;;0.30;;
37507;SDS011;23360;46.936;15.514;2024-03-17T10:31:44;1.63;;;0.50;;
37507;SDS011;23360;46.936;15.514;2024-03-17T10:34:28;1.23;;;0.30;;
37507;SDS011;23360;46.936;15.514;2024-03-17T10:37:19;1.52;;;0.28;;
37507;SDS011;23360;46.936;15.514;2024-03-17T10:40:06;1.88;;;0.30;;
37507;SDS011;23360;46.936;15.514;2024-03-17T10:42:56;0.80;;;0.30;;
37507;SDS011;23360;46.936;15.514;2024-03-17T10:45:41;2.08;;;0.30;;
37507;SDS011;23360;46.936;15.514;2024-03-17T10:48:29;1.90;;;0.30;;
37507;SDS011;23360;46.936;15.514;2024-03-17T10:51:16;0.68;;;0.20;;
37507;SDS011;23360;46.936;15.514;2024-03-17T10:54:01;0.57;;;0.20;;
37507;SDS011;23360;46.936;15.514;2024-03-17T10:56:45;0.88;;;0.30;;
37507;SDS011;23360;46.936;15.514;2024-03-17T10:59:40;0.60;;;0.20;;
37507;SDS011;23360;46.936;15.514;2024-03-17T11:02:26;2.40;;;0.35;;
37507;SDS011;23360;46.936;15.514;2024-03-17T11:07:57;0.50;;;0.20;;
37507;SDS011;23360;46.936;15.514;2024-03-17T11:10:52;0.85;;;0.30;;
37507;SDS011;23360;46.936;15.514;2024-03-17T11:13:39;0.93;;;0.22;;
37507;SDS011;23360;46.936;15.514;2024-03-17T11:16:26;1.83;;;0.40;;
37507;SDS011;23360;46.936;15.514;2024-03-17T11:19:15;1.05;;;0.20;;
37507;SDS011;23360;46.936;15.514;2024-03-17T11:22:33;1.42;;;0.30;;
37507;SDS011;23360;46.936;15.514;2024-03-17T11:25:36;1.75;;;0.47;;
37507;SDS011;23360;46.936;15.514;2024-03-17T11:28:09;1.23;;;0.43;;
37507;SDS011;23360;46.936;15.514;2024-03-17T11:30:54;1.30;;;0.43;;
37507;SDS011;23360;46.936;15.514;2024-03-17T11:39:09;1.60;;;0.55;;
37507;SDS011;23360;46.936;15.514;2024-03-17T11:42:05;1.45;;;0.50;;
37507;SDS011;23360;46.936;15.514;2024-03-17T11:45:15;2.05;;;0.50;;
37507;SDS011;23360;46.936;15.514;2024-03-17T11:48:00;2.25;;;0.60;;
37507;SDS011;23360;46.936;15.514;2024-03-17T11:50:45;6.70;;;0.57;;
37507;SDS011;23360;46.936;15.514;2024-03-17T11:53:29;0.75;;;0.30;;
37507;SDS011;23360;46.936;15.514;2024-03-17T11:56:22;1.25;;;0.50;;
37507;SDS011;23360;46.936;15.514;2024-03-17T11:59:06;2.10;;;0.47;;
37507;SDS011;23360;46.936;15.514;2024-03-17T12:01:53;1.65;;;0.60;;
37507;SDS011;23360;46.936;15.514;2024-03-17T12:04:41;1.48;;;0.38;;
37507;SDS011;23360;46.936;15.514;2024-03-17T12:07:25;3.78;;;0.35;;
37507;SDS011;23360;46.936;15.514;2024-03-17T12:10:12;4.18;;;1.55;;
37507;SDS011;23360;46.936;15.514;2024-03-17T12:12:58;1.50;;;0.40;;
37507;SDS011;23360;46.936;15.514;2024-03-17T12:15:42;2.90;;;0.60;;
37507;SDS011;23360;46.936;15.514;2024-03-17T12:18:26;2.60;;;0.90;;
37507;SDS011;23360;46.936;15.514;2024-03-17T12:21:13;43.15;;;2.08;;
37507;SDS011;23360;46.936;15.514;2024-03-17T12:23:57;5.70;;;0.95;;
37507;SDS011;23360;46.936;15.514;2024-03-17T12:26:42;4.72;;;1.00;;
37507;SDS011;23360;46.936;15.514;2024-03-17T12:29:27;5.63;;;0.80;;
37507;SDS011;23360;46.936;15.514;2024-03-17T12:32:14;0.52;;;0.20;;
37507;SDS011;23360;46.936;15.514;2024-03-17T12:35:00;1.63;;;0.50;;
37507;SDS011;23360;46.936;15.514;2024-03-17T12:37:45;2.78;;;0.60;;
37507;SDS011;23360;46.936;15.514;2024-03-17T12:40:29;4.22;;;0.85;;
37507;SDS011;23360;46.936;15.514;2024-03-17T12:43:13;6.15;;;0.80;;
37507;SDS011;23360;46.936;15.514;2024-03-17T12:45:57;1.90;;;0.50;;
37507;SDS011;23360;46.936;15.514;2024-03-17T12:48:42;15.95;;;0.90;;
37507;SDS011;23360;46.936;15.514;2024-03-17T12:51:27;2.42;;;0.73;;
37507;SDS011;23360;46.936;15.514;2024-03-17T12:54:12;1.98;;;0.65;;
37507;SDS011;23360;46.936;15.514;2024-03-17T12:57:04;3.92;;;0.98;;
37507;SDS011;23360;46.936;15.514;2024-03-17T13:00:17;6.35;;;1.00;;
37507;SDS011;23360;46.936;15.514;2024-03-17T13:03:26;2.33;;;0.60;;
37507;SDS011;23360;46.936;15.514;2024-03-17T13:06:20;7.35;;;1.23;;
37507;SDS011;23360;46.936;15.514;2024-03-17T13:09:05;2.45;;;0.73;;
37507;SDS011;23360;46.936;15.514;2024-03-17T13:11:54;6.18;;;0.80;;
37507;SDS011;23360;46.936;15.514;2024-03-17T13:14:38;2.47;;;0.93;;
37507;SDS011;23360;46.936;15.514;2024-03-17T13:17:22;2.47;;;0.77;;
37507;SDS011;23360;46.936;15.514;2024-03-17T13:20:12;2.42;;;0.82;;
37507;SDS011;23360;46.936;15.514;2024-03-17T13:22:56;2.67;;;0.80;;
37507;SDS011;23360;46.936;15.514;2024-03-17T13:25:41;2.17;;;0.70;;
37507;SDS011;23360;46.936;15.514;2024-03-17T13:28:28;2.53;;;0.90;;
37507;SDS011;23360;46.936;15.514;2024-03-17T13:31:12;5.72;;;0.82;;
37507;SDS011;23360;46.936;15.514;2024-03-17T13:33:57;11.63;;;1.27;;
37507;SDS011;23360;46.936;15.514;2024-03-17T13:36:41;3.45;;;0.77;;
37507;SDS011;23360;46.936;15.514;2024-03-17T13:39:28;3.15;;;1.10;;
37507;SDS011;23360;46.936;15.514;2024-03-17T13:42:14;2.40;;;0.90;;
37507;SDS011;23360;46.936;15.514;2024-03-17T13:44:59;3.15;;;1.15;;
37507;SDS011;23360;46.936;15.514;2024-03-17T13:47:47;4.07;;;0.90;;
37507;SDS011;23360;46.936;15.514;2024-03-17T13:50:32;3.28;;;0.88;;
37507;SDS011;23360;46.936;15.514;2024-03-17T13:53:17;3.90;;;1.30;;
37507;SDS011;23360;46.936;15.514;2024-03-17T13:56:02;4.47;;;1.02;;
37507;SDS011;23360;46.936;15.514;2024-03-17T13:58:52;4.35;;;1.00;;
37507;SDS011;23360;46.936;15.514;2024-03-17T14:01:36;2.92;;;0.98;;
37507;SDS011;23360;46.936;15.514;2024-03-17T14:04:21;3.42;;;1.25;;
37507;SDS011;23360;46.936;15.514;2024-03-17T14:07:05;6.57;;;1.60;;
37507;SDS011;23360;46.936;15.514;2024-03-17T14:09:49;4.47;;;1.52;;
37507;SDS011;23360;46.936;15.514;2024-03-17T14:12:34;7.53;;;1.50;;
37507;SDS011;23360;46.936;15.514;2024-03-17T14:15:18;4.70;;;1.48;;
37507;SDS011;23360;46.936;15.514;2024-03-17T14:18:02;3.78;;;1.38;;
37507;SDS011;23360;46.936;15.514;2024-03-17T14:20:47;5.10;;;1.50;;
37507;SDS011;23360;46.936;15.514;2024-03-17T14:23:31;3.72;;;1.33;;
37507;SDS011;23360;46.936;15.514;2024-03-17T14:26:15;9.48;;;1.30;;
37507;SDS011;23360;46.936;15.514;2024-03-17T14:29:01;3.80;;;1.50;;
37507;SDS011;23360;46.936;15.514;2024-03-17T14:31:45;9.07;;;1.25;;
37507;SDS011;23360;46.936;15.514;2024-03-17T14:34:30;5.45;;;1.58;;
37507;SDS011;23360;46.936;15.514;2024-03-17T14:37:19;4.20;;;1.25;;
37507;SDS011;23360;46.936;15.514;2024-03-17T14:40:03;2.53;;;0.88;;
37507;SDS011;23360;46.936;15.514;2024-03-17T14:42:58;2.35;;;0.93;;
37507;SDS011;23360;46.936;15.514;2024-03-17T14:45:42;4.68;;;0.80;;
37507;SDS011;23360;46.936;15.514;2024-03-17T14:48:26;13.68;;;1.52;;
37507;SDS011;23360;46.936;15.514;2024-03-17T14:51:11;2.38;;;1.00;;
37507;SDS011;23360;46.936;15.514;2024-03-17T14:53:55;2.78;;;1.00;;
37507;SDS011;23360;46.936;15.514;2024-03-17T14:56:40;2.80;;;1.20;;
37507;SDS011;23360;46.936;15.514;2024-03-17T14:59:25;6.82;;;1.75;;
37507;SDS011;23360;46.936;15.514;2024-03-17T15:02:09;4.50;;;1.90;;
37507;SDS011;23360;46.936;15.514;2024-03-17T15:04:54;4.63;;;1.40;;
37507;SDS011;23360;46.936;15.514;2024-03-17T15:07:38;8.23;;;1.40;;
37507;SDS011;23360;46.936;15.514;2024-03-17T15:10:23;3.05;;;1.13;;
37507;SDS011;23360;46.936;15.514;2024-03-17T15:13:07;3.55;;;1.23;;
37507;SDS011;23360;46.936;15.514;2024-03-17T15:15:53;3.50;;;1.42;;
37507;SDS011;23360;46.936;15.514;2024-03-17T15:18:38;2.78;;;1.30;;
37507;SDS011;23360;46.936;15.514;2024-03-17T15:21:23;4.00;;;1.33;;
37507;SDS011;23360;46.936;15.514;2024-03-17T15:24:07;5.60;;;1.75;;
37507;SDS011;23360;46.936;15.514;2024-03-17T15:26:51;5.20;;;1.75;;
37507;SDS011;23360;46.936;15.514;2024-03-17T15:29:35;3.50;;;1.30;;
37507;SDS011;23360;46.936;15.514;2024-03-17T15:32:19;5.80;;;1.48;;
37507;SDS011;23360;46.936;15.514;2024-03-17T15:35:03;3.60;;;1.52;;
37507;SDS011;23360;46.936;15.514;2024-03-17T15:37:49;7.68;;;1.13;;
37507;SDS011;23360;46.936;15.514;2024-03-17T15:40:33;5.43;;;1.60;;
37507;SDS011;23360;46.936;15.514;2024-03-17T15:43:19;7.88;;;1.20;;
37507;SDS011;23360;46.936;15.514;2024-03-17T15:46:13;4.20;;;1.65;;
37507;SDS011;23360;46.936;15.514;2024-03-17T15:48:57;10.52;;;1.45;;
37507;SDS011;23360;46.936;15.514;2024-03-17T15:51:44;3.67;;;1.40;;
37507;SDS011;23360;46.936;15.514;2024-03-17T15:54:29;5.88;;;1.45;;
37507;SDS011;23360;46.936;15.514;2024-03-17T15:57:13;3.15;;;1.05;;
37507;SDS011;23360;46.936;15.514;2024-03-17T15:59:57;3.95;;;1.30;;
37507;SDS011;23360;46.936;15.514;2024-03-17T16:02:43;89.35;;;4.53;;
37507;SDS011;23360;46.936;15.514;2024-03-17T16:05:28;5.18;;;1.92;;
37507;SDS011;23360;46.936;15.514;2024-03-17T16:08:13;5.85;;;1.98;;
37507;SDS011;23360;46.936;15.514;2024-03-17T16:10:59;56.10;;;19.30;;
37507;SDS011;23360;46.936;15.514;2024-03-17T16:13:45;16.30;;;6.28;;
37507;SDS011;23360;46.936;15.514;2024-03-17T16:16:30;23.25;;;12.07;;
37507;SDS011;23360;46.936;15.514;2024-03-17T16:19:15;8.80;;;3.15;;
37507;SDS011;23360;46.936;15.514;2024-03-17T16:22:01;9.65;;;3.78;;
37507;SDS011;23360;46.936;15.514;2024-03-17T16:24:47;10.75;;;1.90;;
37507;SDS011;23360;46.936;15.514;2024-03-17T16:27:32;4.57;;;1.83;;
37507;SDS011;23360;46.936;15.514;2024-03-17T16:30:16;5.35;;;2.05;;
37507;SDS011;23360;46.936;15.514;2024-03-17T16:33:01;4.07;;;1.70;;